sensor_id;sensor_type;location;lat;lon;timestamp;temperature;humidity
4910;DHT22;2470;49.868;8.660;2023-01-28T00:00:23;4.80;99.90
4910;DHT22;2470;49.868;8.660;2023-01-28T00:02:49;4.90;99.90
4910;DHT22;2470;49.868;8.660;2023-01-28T00:05:15;4.90;99.90
4910;DHT22;2470;49.868;8.660;2023-01-28T00:07:41;4.90;99.90
4910;DHT22;2470;49.868;8.660;2023-01-28T00:10:07;4.90;99.90
4910;DHT22;2470;49.868;8.660;2023-01-28T00:12:32;4.90;99.90
4910;DHT22;2470;49.868;8.660;2023-01-28T00:14:58;4.90;99.90
4910;DHT22;2470;49.868;8.660;2023-01-28T00:17:23;4.80;99.90
4910;DHT22;2470;49.868;8.660;2023-01-28T00:19:49;4.80;99.90
4910;DHT22;2470;49.868;8.660;2023-01-28T00:22:14;4.80;99.90
4910;DHT22;2470;49.868;8.660;2023-01-28T00:24:40;4.80;99.90
4910;DHT22;2470;49.868;8.660;2023-01-28T00:27:05;4.80;99.90
4910;DHT22;2470;49.868;8.660;2023-01-28T00:29:31;4.80;99.90
4910;DHT22;2470;49.868;8.660;2023-01-28T00:31:56;4.80;99.90
4910;DHT22;2470;49.868;8.660;2023-01-28T00:34:22;4.70;99.90
4910;DHT22;2470;49.868;8.660;2023-01-28T00:36:47;4.70;99.90
4910;DHT22;2470;49.868;8.660;2023-01-28T00:39:25;4.70;99.90
4910;DHT22;2470;49.868;8.660;2023-01-28T00:41:51;4.70;99.90
4910;DHT22;2470;49.868;8.660;2023-01-28T00:44:17;4.70;99.90
4910;DHT22;2470;49.868;8.660;2023-01-28T00:46:43;4.80;99.90
4910;DHT22;2470;49.868;8.660;2023-01-28T00:49:09;4.80;99.90
4910;DHT22;2470;49.868;8.660;2023-01-28T00:51:35;4.80;99.90
4910;DHT22;2470;49.868;8.660;2023-01-28T00:54:00;4.80;99.90
4910;DHT22;2470;49.868;8.660;2023-01-28T00:56:26;4.80;99.90
4910;DHT22;2470;49.868;8.660;2023-01-28T00:58:52;4.80;99.90
4910;DHT22;2470;49.868;8.660;2023-01-28T01:01:21;4.70;99.90
4910;DHT22;2470;49.868;8.660;2023-01-28T01:03:47;4.70;99.90
4910;DHT22;2470;49.868;8.660;2023-01-28T01:06:22;4.70;99.90
4910;DHT22;2470;49.868;8.660;2023-01-28T01:08:48;4.70;99.90
4910;DHT22;2470;49.868;8.660;2023-01-28T01:11:15;4.70;99.90
4910;DHT22;2470;49.868;8.660;2023-01-28T01:13:41;4.70;99.90
4910;DHT22;2470;49.868;8.660;2023-01-28T01:16:10;4.70;99.90
4910;DHT22;2470;49.868;8.660;2023-01-28T01:18:36;4.70;99.90
4910;DHT22;2470;49.868;8.660;2023-01-28T01:21:08;4.70;99.90
4910;DHT22;2470;49.868;8.660;2023-01-28T01:23:34;4.70;99.90
4910;DHT22;2470;49.868;8.660;2023-01-28T01:25:59;4.60;99.90
4910;DHT22;2470;49.868;8.660;2023-01-28T01:28:25;4.60;99.90
4910;DHT22;2470;49.868;8.660;2023-01-28T01:31:02;4.60;99.90
4910;DHT22;2470;49.868;8.660;2023-01-28T01:33:29;4.50;99.90
4910;DHT22;2470;49.868;8.660;2023-01-28T01:35:56;4.50;99.90
4910;DHT22;2470;49.868;8.660;2023-01-28T01:38:22;4.50;99.90
4910;DHT22;2470;49.868;8.660;2023-01-28T01:40:47;4.50;99.90
4910;DHT22;2470;49.868;8.660;2023-01-28T01:43:21;4.60;99.90
4910;DHT22;2470;49.868;8.660;2023-01-28T01:45:52;4.50;99.90
4910;DHT22;2470;49.868;8.660;2023-01-28T01:48:23;4.60;99.90
4910;DHT22;2470;49.868;8.660;2023-01-28T01:50:54;4.50;99.90
4910;DHT22;2470;49.868;8.660;2023-01-28T01:53:22;4.50;99.90
4910;DHT22;2470;49.868;8.660;2023-01-28T01:55:52;4.50;99.90
4910;DHT22;2470;49.868;8.660;2023-01-28T01:58:22;4.50;99.90
4910;DHT22;2470;49.868;8.660;2023-01-28T02:00:50;4.50;99.90
4910;DHT22;2470;49.868;8.660;2023-01-28T02:03:18;4.50;99.90
4910;DHT22;2470;49.868;8.660;2023-01-28T02:05:48;4.50;99.90
4910;DHT22;2470;49.868;8.660;2023-01-28T02:08:14;4.50;99.90
4910;DHT22;2470;49.868;8.660;2023-01-28T02:13:17;4.50;99.90
4910;DHT22;2470;49.868;8.660;2023-01-28T02:15:44;4.50;99.90
4910;DHT22;2470;49.868;8.660;2023-01-28T02:18:10;4.50;99.90
4910;DHT22;2470;49.868;8.660;2023-01-28T02:32:23;4.50;99.90
4910;DHT22;2470;49.868;8.660;2023-01-28T02:35:17;4.40;99.90
4910;DHT22;2470;49.868;8.660;2023-01-28T02:38:08;4.40;99.90
4910;DHT22;2470;49.868;8.660;2023-01-28T02:40:39;4.40;99.90
4910;DHT22;2470;49.868;8.660;2023-01-28T02:43:44;4.40;99.90
4910;DHT22;2470;49.868;8.660;2023-01-28T02:49:38;4.40;99.90
4910;DHT22;2470;49.868;8.660;2023-01-28T02:52:18;4.30;99.90
4910;DHT22;2470;49.868;8.660;2023-01-28T02:55:20;4.30;99.90
4910;DHT22;2470;49.868;8.660;2023-01-28T03:01:01;4.30;99.90
4910;DHT22;2470;49.868;8.660;2023-01-28T03:06:11;4.30;99.90
4910;DHT22;2470;49.868;8.660;2023-01-28T03:09:01;4.30;99.90
4910;DHT22;2470;49.868;8.660;2023-01-28T03:11:49;4.20;99.90
4910;DHT22;2470;49.868;8.660;2023-01-28T03:14:35;4.30;99.90
4910;DHT22;2470;49.868;8.660;2023-01-28T03:17:36;4.30;99.90
4910;DHT22;2470;49.868;8.660;2023-01-28T03:20:24;4.30;99.90
4910;DHT22;2470;49.868;8.660;2023-01-28T03:23:15;4.30;99.90
4910;DHT22;2470;49.868;8.660;2023-01-28T03:26:02;4.30;99.90
4910;DHT22;2470;49.868;8.660;2023-01-28T03:28:48;4.30;99.90
4910;DHT22;2470;49.868;8.660;2023-01-28T03:31:34;4.30;99.90
4910;DHT22;2470;49.868;8.660;2023-01-28T03:34:20;4.30;99.90
4910;DHT22;2470;49.868;8.660;2023-01-28T03:37:05;4.30;99.90
4910;DHT22;2470;49.868;8.660;2023-01-28T03:39:31;4.30;99.90
4910;DHT22;2470;49.868;8.660;2023-01-28T03:42:11;4.30;99.90
4910;DHT22;2470;49.868;8.660;2023-01-28T03:44:38;4.30;99.90
4910;DHT22;2470;49.868;8.660;2023-01-28T03:47:20;4.30;99.90
4910;DHT22;2470;49.868;8.660;2023-01-28T03:49:48;4.30;99.90
4910;DHT22;2470;49.868;8.660;2023-01-28T03:52:16;4.30;99.90
4910;DHT22;2470;49.868;8.660;2023-01-28T03:54:43;4.30;99.90
4910;DHT22;2470;49.868;8.660;2023-01-28T03:57:08;4.40;99.90
4910;DHT22;2470;49.868;8.660;2023-01-28T03:59:34;4.30;99.90
4910;DHT22;2470;49.868;8.660;2023-01-28T04:02:00;4.30;99.90
4910;DHT22;2470;49.868;8.660;2023-01-28T04:04:28;4.30;99.90
4910;DHT22;2470;49.868;8.660;2023-01-28T04:06:54;4.30;99.90
4910;DHT22;2470;49.868;8.660;2023-01-28T04:09:20;4.30;99.90
4910;DHT22;2470;49.868;8.660;2023-01-28T04:11:47;4.30;99.90
4910;DHT22;2470;49.868;8.660;2023-01-28T04:14:13;4.30;99.90
4910;DHT22;2470;49.868;8.660;2023-01-28T04:16:39;4.20;99.90
4910;DHT22;2470;49.868;8.660;2023-01-28T04:19:05;4.20;99.90
4910;DHT22;2470;49.868;8.660;2023-01-28T04:21:31;4.20;99.90
4910;DHT22;2470;49.868;8.660;2023-01-28T04:23:56;4.20;99.90
4910;DHT22;2470;49.868;8.660;2023-01-28T04:26:22;4.20;99.90
4910;DHT22;2470;49.868;8.660;2023-01-28T04:28:47;4.20;99.90
4910;DHT22;2470;49.868;8.660;2023-01-28T04:31:13;4.20;99.90
4910;DHT22;2470;49.868;8.660;2023-01-28T04:33:38;4.10;99.90
4910;DHT22;2470;49.868;8.660;2023-01-28T04:36:04;4.10;99.90
4910;DHT22;2470;49.868;8.660;2023-01-28T04:38:29;4.10;99.90
4910;DHT22;2470;49.868;8.660;2023-01-28T04:40:55;4.10;99.90
4910;DHT22;2470;49.868;8.660;2023-01-28T04:43:20;4.10;99.90
4910;DHT22;2470;49.868;8.660;2023-01-28T04:45:46;4.10;99.90
4910;DHT22;2470;49.868;8.660;2023-01-28T04:48:13;4.10;99.90
4910;DHT22;2470;49.868;8.660;2023-01-28T04:50:39;4.10;99.90
4910;DHT22;2470;49.868;8.660;2023-01-28T04:53:04;4.10;99.90
4910;DHT22;2470;49.868;8.660;2023-01-28T04:55:30;4.10;99.90
4910;DHT22;2470;49.868;8.660;2023-01-28T04:57:55;4.10;99.90
4910;DHT22;2470;49.868;8.660;2023-01-28T05:00:21;4.10;99.90
4910;DHT22;2470;49.868;8.660;2023-01-28T05:02:47;4.20;99.90
4910;DHT22;2470;49.868;8.660;2023-01-28T05:05:13;4.20;99.90
4910;DHT22;2470;49.868;8.660;2023-01-28T05:07:38;4.20;99.90
4910;DHT22;2470;49.868;8.660;2023-01-28T05:10:04;4.20;99.90
4910;DHT22;2470;49.868;8.660;2023-01-28T05:12:30;4.20;99.90
4910;DHT22;2470;49.868;8.660;2023-01-28T05:14:57;4.10;99.90
4910;DHT22;2470;49.868;8.660;2023-01-28T05:17:25;4.10;99.90
4910;DHT22;2470;49.868;8.660;2023-01-28T05:19:51;4.10;99.90
4910;DHT22;2470;49.868;8.660;2023-01-28T05:22:16;4.10;99.90
4910;DHT22;2470;49.868;8.660;2023-01-28T05:24:42;4.00;99.90
4910;DHT22;2470;49.868;8.660;2023-01-28T05:27:08;4.10;99.90
4910;DHT22;2470;49.868;8.660;2023-01-28T05:29:33;4.10;99.90
4910;DHT22;2470;49.868;8.660;2023-01-28T05:31:59;4.10;99.90
4910;DHT22;2470;49.868;8.660;2023-01-28T05:34:24;4.10;99.90
4910;DHT22;2470;49.868;8.660;2023-01-28T05:36:50;4.10;99.90
4910;DHT22;2470;49.868;8.660;2023-01-28T05:39:15;4.10;99.90
4910;DHT22;2470;49.868;8.660;2023-01-28T05:41:41;4.00;99.90
4910;DHT22;2470;49.868;8.660;2023-01-28T05:44:06;4.00;99.90
4910;DHT22;2470;49.868;8.660;2023-01-28T05:46:32;4.00;99.90
4910;DHT22;2470;49.868;8.660;2023-01-28T05:48:57;4.00;99.90
4910;DHT22;2470;49.868;8.660;2023-01-28T05:51:23;4.00;99.90
4910;DHT22;2470;49.868;8.660;2023-01-28T05:53:48;4.00;99.90
4910;DHT22;2470;49.868;8.660;2023-01-28T05:56:14;4.00;99.90
4910;DHT22;2470;49.868;8.660;2023-01-28T05:58:39;4.10;99.90
4910;DHT22;2470;49.868;8.660;2023-01-28T06:01:05;4.10;99.90
4910;DHT22;2470;49.868;8.660;2023-01-28T06:03:30;4.10;99.90
4910;DHT22;2470;49.868;8.660;2023-01-28T06:05:56;4.10;99.90
4910;DHT22;2470;49.868;8.660;2023-01-28T06:08:21;4.10;99.90
4910;DHT22;2470;49.868;8.660;2023-01-28T06:10:47;4.10;99.90
4910;DHT22;2470;49.868;8.660;2023-01-28T06:13:12;4.10;99.90
4910;DHT22;2470;49.868;8.660;2023-01-28T06:15:38;4.10;99.90
4910;DHT22;2470;49.868;8.660;2023-01-28T06:18:03;4.10;99.90
4910;DHT22;2470;49.868;8.660;2023-01-28T06:20:29;4.10;99.90
4910;DHT22;2470;49.868;8.660;2023-01-28T06:22:54;4.00;99.90
4910;DHT22;2470;49.868;8.660;2023-01-28T06:25:20;4.10;99.90
4910;DHT22;2470;49.868;8.660;2023-01-28T06:27:48;4.10;99.90
4910;DHT22;2470;49.868;8.660;2023-01-28T06:30:14;4.10;99.90
4910;DHT22;2470;49.868;8.660;2023-01-28T06:32:39;4.10;99.90
4910;DHT22;2470;49.868;8.660;2023-01-28T06:35:05;4.10;99.90
4910;DHT22;2470;49.868;8.660;2023-01-28T06:37:30;4.00;99.90
4910;DHT22;2470;49.868;8.660;2023-01-28T06:39:56;4.00;99.90
4910;DHT22;2470;49.868;8.660;2023-01-28T06:42:21;4.00;99.90
4910;DHT22;2470;49.868;8.660;2023-01-28T06:44:47;4.00;99.90
4910;DHT22;2470;49.868;8.660;2023-01-28T06:47:12;4.00;99.90
4910;DHT22;2470;49.868;8.660;2023-01-28T06:49:39;4.00;99.90
4910;DHT22;2470;49.868;8.660;2023-01-28T06:52:05;4.00;99.90
4910;DHT22;2470;49.868;8.660;2023-01-28T06:54:31;4.00;99.90
4910;DHT22;2470;49.868;8.660;2023-01-28T06:56:56;3.90;99.90
4910;DHT22;2470;49.868;8.660;2023-01-28T06:59:22;4.00;99.90
4910;DHT22;2470;49.868;8.660;2023-01-28T07:01:48;4.10;99.90
4910;DHT22;2470;49.868;8.660;2023-01-28T07:04:13;4.00;99.90
4910;DHT22;2470;49.868;8.660;2023-01-28T07:06:39;4.10;99.90
4910;DHT22;2470;49.868;8.660;2023-01-28T07:09:04;4.10;99.90
4910;DHT22;2470;49.868;8.660;2023-01-28T07:11:30;4.10;99.90
4910;DHT22;2470;49.868;8.660;2023-01-28T07:13:55;4.00;99.90
4910;DHT22;2470;49.868;8.660;2023-01-28T07:16:21;4.10;99.90
4910;DHT22;2470;49.868;8.660;2023-01-28T07:18:46;4.10;99.90
4910;DHT22;2470;49.868;8.660;2023-01-28T07:21:12;4.10;99.90
4910;DHT22;2470;49.868;8.660;2023-01-28T07:23:37;4.10;99.90
4910;DHT22;2470;49.868;8.660;2023-01-28T07:26:04;4.20;99.90
4910;DHT22;2470;49.868;8.660;2023-01-28T07:28:30;4.10;99.90
4910;DHT22;2470;49.868;8.660;2023-01-28T07:30:56;4.20;99.90
4910;DHT22;2470;49.868;8.660;2023-01-28T07:33:22;4.10;99.90
4910;DHT22;2470;49.868;8.660;2023-01-28T07:35:48;4.10;99.90
4910;DHT22;2470;49.868;8.660;2023-01-28T07:38:13;4.10;99.90
4910;DHT22;2470;49.868;8.660;2023-01-28T07:40:39;4.10;99.90
4910;DHT22;2470;49.868;8.660;2023-01-28T07:43:07;4.20;99.90
4910;DHT22;2470;49.868;8.660;2023-01-28T07:45:32;4.20;99.90
4910;DHT22;2470;49.868;8.660;2023-01-28T07:48:00;4.20;99.90
4910;DHT22;2470;49.868;8.660;2023-01-28T07:50:27;4.20;99.90
4910;DHT22;2470;49.868;8.660;2023-01-28T07:52:54;4.30;99.90
4910;DHT22;2470;49.868;8.660;2023-01-28T07:55:23;4.30;99.90
4910;DHT22;2470;49.868;8.660;2023-01-28T07:57:51;4.30;99.90
4910;DHT22;2470;49.868;8.660;2023-01-28T08:00:17;4.30;99.90
4910;DHT22;2470;49.868;8.660;2023-01-28T08:02:43;4.40;99.90
4910;DHT22;2470;49.868;8.660;2023-01-28T08:05:15;4.40;99.90
4910;DHT22;2470;49.868;8.660;2023-01-28T08:07:41;4.40;99.90
4910;DHT22;2470;49.868;8.660;2023-01-28T08:10:07;4.40;99.90
4910;DHT22;2470;49.868;8.660;2023-01-28T08:12:33;4.40;99.90
4910;DHT22;2470;49.868;8.660;2023-01-28T08:14:58;4.40;99.90
4910;DHT22;2470;49.868;8.660;2023-01-28T08:17:24;4.40;99.90
4910;DHT22;2470;49.868;8.660;2023-01-28T08:19:49;4.40;99.90
4910;DHT22;2470;49.868;8.660;2023-01-28T08:22:15;4.50;99.90
4910;DHT22;2470;49.868;8.660;2023-01-28T08:24:40;4.50;99.90
4910;DHT22;2470;49.868;8.660;2023-01-28T08:27:06;4.50;99.90
4910;DHT22;2470;49.868;8.660;2023-01-28T08:29:31;4.50;99.90
4910;DHT22;2470;49.868;8.660;2023-01-28T08:31:57;4.50;99.90
4910;DHT22;2470;49.868;8.660;2023-01-28T08:34:23;4.50;99.90
4910;DHT22;2470;49.868;8.660;2023-01-28T08:36:48;4.50;99.90
4910;DHT22;2470;49.868;8.660;2023-01-28T08:39:14;4.50;99.90
4910;DHT22;2470;49.868;8.660;2023-01-28T08:41:39;4.50;99.90
4910;DHT22;2470;49.868;8.660;2023-01-28T08:44:05;4.60;99.90
4910;DHT22;2470;49.868;8.660;2023-01-28T08:46:30;4.60;99.90
4910;DHT22;2470;49.868;8.660;2023-01-28T08:48:56;4.60;99.90
4910;DHT22;2470;49.868;8.660;2023-01-28T08:51:21;4.60;99.90
4910;DHT22;2470;49.868;8.660;2023-01-28T08:53:47;4.70;99.90
4910;DHT22;2470;49.868;8.660;2023-01-28T08:56:12;4.70;99.90
4910;DHT22;2470;49.868;8.660;2023-01-28T08:58:38;4.90;99.90
4910;DHT22;2470;49.868;8.660;2023-01-28T09:01:05;5.10;99.90
4910;DHT22;2470;49.868;8.660;2023-01-28T09:03:31;5.20;99.90
4910;DHT22;2470;49.868;8.660;2023-01-28T09:06:03;5.30;99.90
4910;DHT22;2470;49.868;8.660;2023-01-28T09:08:29;5.30;99.90
4910;DHT22;2470;49.868;8.660;2023-01-28T09:10:59;5.60;99.90
4910;DHT22;2470;49.868;8.660;2023-01-28T09:13:25;5.70;99.90
4910;DHT22;2470;49.868;8.660;2023-01-28T09:15:51;5.80;99.90
4910;DHT22;2470;49.868;8.660;2023-01-28T09:18:17;5.80;99.90
4910;DHT22;2470;49.868;8.660;2023-01-28T09:20:43;5.80;99.90
4910;DHT22;2470;49.868;8.660;2023-01-28T09:23:09;5.70;99.90
4910;DHT22;2470;49.868;8.660;2023-01-28T09:25:35;5.60;99.90
4910;DHT22;2470;49.868;8.660;2023-01-28T09:28:00;5.60;99.90
4910;DHT22;2470;49.868;8.660;2023-01-28T09:30:26;5.50;99.90
4910;DHT22;2470;49.868;8.660;2023-01-28T09:32:52;5.40;99.90
4910;DHT22;2470;49.868;8.660;2023-01-28T09:35:18;5.40;99.90
4910;DHT22;2470;49.868;8.660;2023-01-28T09:37:45;5.30;99.90
4910;DHT22;2470;49.868;8.660;2023-01-28T09:40:16;5.30;99.90
4910;DHT22;2470;49.868;8.660;2023-01-28T09:45:41;5.30;99.90
4910;DHT22;2470;49.868;8.660;2023-01-28T09:48:13;5.30;99.90
4910;DHT22;2470;49.868;8.660;2023-01-28T09:50:44;5.30;99.90
4910;DHT22;2470;49.868;8.660;2023-01-28T09:53:31;5.40;99.90
4910;DHT22;2470;49.868;8.660;2023-01-28T09:56:04;5.40;99.90
4910;DHT22;2470;49.868;8.660;2023-01-28T09:58:31;5.40;99.90
4910;DHT22;2470;49.868;8.660;2023-01-28T10:04:25;5.50;99.90
4910;DHT22;2470;49.868;8.660;2023-01-28T10:07:09;5.40;99.90
4910;DHT22;2470;49.868;8.660;2023-01-28T10:10:01;5.40;99.90
4910;DHT22;2470;49.868;8.660;2023-01-28T10:15:49;5.40;99.90
4910;DHT22;2470;49.868;8.660;2023-01-28T10:18:15;5.50;99.90
4910;DHT22;2470;49.868;8.660;2023-01-28T10:21:00;5.50;99.90
4910;DHT22;2470;49.868;8.660;2023-01-28T10:26:41;5.60;99.90
4910;DHT22;2470;49.868;8.660;2023-01-28T10:29:28;5.60;99.90
4910;DHT22;2470;49.868;8.660;2023-01-28T10:32:20;5.70;99.90
4910;DHT22;2470;49.868;8.660;2023-01-28T10:34:47;5.80;99.90
4910;DHT22;2470;49.868;8.660;2023-01-28T10:37:14;5.80;99.90
4910;DHT22;2470;49.868;8.660;2023-01-28T10:39:40;5.90;99.90
4910;DHT22;2470;49.868;8.660;2023-01-28T10:42:34;5.90;99.90
4910;DHT22;2470;49.868;8.660;2023-01-28T10:45:05;6.00;99.90
4910;DHT22;2470;49.868;8.660;2023-01-28T10:47:38;6.00;99.90
4910;DHT22;2470;49.868;8.660;2023-01-28T10:50:06;6.00;99.90
4910;DHT22;2470;49.868;8.660;2023-01-28T10:52:49;6.00;99.90
4910;DHT22;2470;49.868;8.660;2023-01-28T10:55:14;6.00;99.90
4910;DHT22;2470;49.868;8.660;2023-01-28T10:57:41;6.00;99.90
4910;DHT22;2470;49.868;8.660;2023-01-28T11:02:47;6.10;99.90
4910;DHT22;2470;49.868;8.660;2023-01-28T11:07:43;6.00;99.90
4910;DHT22;2470;49.868;8.660;2023-01-28T11:10:38;6.00;99.90
4910;DHT22;2470;49.868;8.660;2023-01-28T11:13:11;6.00;99.90
4910;DHT22;2470;49.868;8.660;2023-01-28T11:15:46;6.10;99.90
4910;DHT22;2470;49.868;8.660;2023-01-28T11:18:21;6.00;99.90
4910;DHT22;2470;49.868;8.660;2023-01-28T11:20:51;6.00;99.90
4910;DHT22;2470;49.868;8.660;2023-01-28T11:23:22;6.00;99.90
4910;DHT22;2470;49.868;8.660;2023-01-28T11:25:48;5.90;99.90
4910;DHT22;2470;49.868;8.660;2023-01-28T11:28:24;5.80;99.90
4910;DHT22;2470;49.868;8.660;2023-01-28T11:30:51;5.90;99.90
4910;DHT22;2470;49.868;8.660;2023-01-28T11:33:21;5.90;99.90
4910;DHT22;2470;49.868;8.660;2023-01-28T11:35:56;5.80;99.90
4910;DHT22;2470;49.868;8.660;2023-01-28T11:38:24;5.80;99.90
4910;DHT22;2470;49.868;8.660;2023-01-28T11:40:51;5.70;99.90
4910;DHT22;2470;49.868;8.660;2023-01-28T11:43:21;5.70;99.90
4910;DHT22;2470;49.868;8.660;2023-01-28T11:51:53;5.80;99.90
4910;DHT22;2470;49.868;8.660;2023-01-28T11:54:43;5.80;99.90
4910;DHT22;2470;49.868;8.660;2023-01-28T12:06:18;5.70;99.90
4910;DHT22;2470;49.868;8.660;2023-01-28T12:09:00;5.70;99.90
4910;DHT22;2470;49.868;8.660;2023-01-28T12:11:50;5.60;99.90
4910;DHT22;2470;49.868;8.660;2023-01-28T12:22:54;5.50;99.90
4910;DHT22;2470;49.868;8.660;2023-01-28T12:33:26;5.40;99.90
4910;DHT22;2470;49.868;8.660;2023-01-28T12:39:00;5.40;99.90
4910;DHT22;2470;49.868;8.660;2023-01-28T12:41:32;5.40;99.90
4910;DHT22;2470;49.868;8.660;2023-01-28T12:44:02;5.30;99.90
4910;DHT22;2470;49.868;8.660;2023-01-28T12:46:47;5.30;99.90
4910;DHT22;2470;49.868;8.660;2023-01-28T12:49:24;5.40;99.90
4910;DHT22;2470;49.868;8.660;2023-01-28T12:52:30;5.40;99.90
4910;DHT22;2470;49.868;8.660;2023-01-28T12:55:10;5.40;99.90
4910;DHT22;2470;49.868;8.660;2023-01-28T12:57:37;5.40;99.90
4910;DHT22;2470;49.868;8.660;2023-01-28T13:00:24;5.40;99.90
4910;DHT22;2470;49.868;8.660;2023-01-28T13:03:15;5.30;99.90
4910;DHT22;2470;49.868;8.660;2023-01-28T13:05:53;5.20;99.90
4910;DHT22;2470;49.868;8.660;2023-01-28T13:08:23;5.20;99.90
4910;DHT22;2470;49.868;8.660;2023-01-28T13:10:50;5.10;99.90
4910;DHT22;2470;49.868;8.660;2023-01-28T13:13:31;5.00;99.90
4910;DHT22;2470;49.868;8.660;2023-01-28T13:15:57;5.00;99.90
4910;DHT22;2470;49.868;8.660;2023-01-28T13:26:45;5.00;99.90
4910;DHT22;2470;49.868;8.660;2023-01-28T13:31:41;4.90;99.90
4910;DHT22;2470;49.868;8.660;2023-01-28T13:34:24;4.90;99.90
4910;DHT22;2470;49.868;8.660;2023-01-28T13:36:51;4.90;99.90
4910;DHT22;2470;49.868;8.660;2023-01-28T13:39:20;4.90;99.90
4910;DHT22;2470;49.868;8.660;2023-01-28T13:41:52;4.90;99.90
4910;DHT22;2470;49.868;8.660;2023-01-28T13:46:44;4.80;99.90
4910;DHT22;2470;49.868;8.660;2023-01-28T13:49:16;4.80;99.90
4910;DHT22;2470;49.868;8.660;2023-01-28T13:54:47;4.80;99.90
4910;DHT22;2470;49.868;8.660;2023-01-28T13:57:47;4.80;99.90
4910;DHT22;2470;49.868;8.660;2023-01-28T14:11:12;4.60;99.90
4910;DHT22;2470;49.868;8.660;2023-01-28T14:19:11;4.60;99.90
4910;DHT22;2470;49.868;8.660;2023-01-28T14:21:38;4.60;99.90
4910;DHT22;2470;49.868;8.660;2023-01-28T14:24:05;4.60;99.90
4910;DHT22;2470;49.868;8.660;2023-01-28T14:26:54;4.60;99.90
4910;DHT22;2470;49.868;8.660;2023-01-28T14:29:33;4.60;99.90
4910;DHT22;2470;49.868;8.660;2023-01-28T14:32:04;4.60;99.90
4910;DHT22;2470;49.868;8.660;2023-01-28T14:34:32;4.60;99.90
4910;DHT22;2470;49.868;8.660;2023-01-28T14:37:24;4.50;99.90
4910;DHT22;2470;49.868;8.660;2023-01-28T14:39:53;4.50;99.90
4910;DHT22;2470;49.868;8.660;2023-01-28T14:42:38;4.50;99.90
4910;DHT22;2470;49.868;8.660;2023-01-28T14:45:23;4.50;99.90
4910;DHT22;2470;49.868;8.660;2023-01-28T14:51:04;4.50;99.90
4910;DHT22;2470;49.868;8.660;2023-01-28T14:54:02;4.50;99.90
4910;DHT22;2470;49.868;8.660;2023-01-28T14:59:21;4.50;99.90
4910;DHT22;2470;49.868;8.660;2023-01-28T15:01:48;4.40;99.90
4910;DHT22;2470;49.868;8.660;2023-01-28T15:04:45;4.40;99.90
4910;DHT22;2470;49.868;8.660;2023-01-28T15:07:25;4.50;99.80
4910;DHT22;2470;49.868;8.660;2023-01-28T15:10:04;4.50;99.60
4910;DHT22;2470;49.868;8.660;2023-01-28T15:12:34;4.50;99.40
4910;DHT22;2470;49.868;8.660;2023-01-28T15:15:27;4.50;99.50
4910;DHT22;2470;49.868;8.660;2023-01-28T15:17:55;4.50;99.60
4910;DHT22;2470;49.868;8.660;2023-01-28T15:20:22;4.50;99.50
4910;DHT22;2470;49.868;8.660;2023-01-28T15:22:50;4.50;99.50
4910;DHT22;2470;49.868;8.660;2023-01-28T15:25:21;4.50;99.40
4910;DHT22;2470;49.868;8.660;2023-01-28T15:27:49;4.50;99.40
4910;DHT22;2470;49.868;8.660;2023-01-28T15:30:25;4.50;99.30
4910;DHT22;2470;49.868;8.660;2023-01-28T15:33:11;4.50;99.20
4910;DHT22;2470;49.868;8.660;2023-01-28T15:35:45;4.50;99.20
4910;DHT22;2470;49.868;8.660;2023-01-28T15:38:11;4.50;99.20
4910;DHT22;2470;49.868;8.660;2023-01-28T15:40:42;4.50;99.10
4910;DHT22;2470;49.868;8.660;2023-01-28T15:43:17;4.40;99.00
4910;DHT22;2470;49.868;8.660;2023-01-28T15:45:46;4.40;98.80
4910;DHT22;2470;49.868;8.660;2023-01-28T15:48:13;4.30;98.90
4910;DHT22;2470;49.868;8.660;2023-01-28T15:50:40;4.30;99.20
4910;DHT22;2470;49.868;8.660;2023-01-28T15:53:12;4.30;99.30
4910;DHT22;2470;49.868;8.660;2023-01-28T15:55:40;4.30;99.20
4910;DHT22;2470;49.868;8.660;2023-01-28T15:58:17;4.30;99.30
4910;DHT22;2470;49.868;8.660;2023-01-28T16:00:43;4.30;99.30
4910;DHT22;2470;49.868;8.660;2023-01-28T16:03:15;4.30;99.20
4910;DHT22;2470;49.868;8.660;2023-01-28T16:05:54;4.30;99.20
4910;DHT22;2470;49.868;8.660;2023-01-28T16:08:33;4.20;99.10
4910;DHT22;2470;49.868;8.660;2023-01-28T16:11:01;4.20;99.00
4910;DHT22;2470;49.868;8.660;2023-01-28T16:13:30;4.20;98.90
4910;DHT22;2470;49.868;8.660;2023-01-28T16:15:57;4.20;99.00
4910;DHT22;2470;49.868;8.660;2023-01-28T16:18:45;4.20;99.00
4910;DHT22;2470;49.868;8.660;2023-01-28T16:21:23;4.20;99.00
4910;DHT22;2470;49.868;8.660;2023-01-28T16:24:17;4.20;99.20
4910;DHT22;2470;49.868;8.660;2023-01-28T16:27:01;4.10;99.30
4910;DHT22;2470;49.868;8.660;2023-01-28T16:29:28;4.10;99.50
4910;DHT22;2470;49.868;8.660;2023-01-28T16:31:55;4.10;99.60
4910;DHT22;2470;49.868;8.660;2023-01-28T16:34:21;4.20;99.50
4910;DHT22;2470;49.868;8.660;2023-01-28T16:39:42;4.10;99.50
4910;DHT22;2470;49.868;8.660;2023-01-28T16:42:07;4.10;99.40
4910;DHT22;2470;49.868;8.660;2023-01-28T16:44:33;4.10;99.40
4910;DHT22;2470;49.868;8.660;2023-01-28T16:46:59;4.30;99.80
4910;DHT22;2470;49.868;8.660;2023-01-28T16:49:24;4.10;99.40
4910;DHT22;2470;49.868;8.660;2023-01-28T16:51:50;4.10;99.30
4910;DHT22;2470;49.868;8.660;2023-01-28T16:54:16;4.10;99.30
4910;DHT22;2470;49.868;8.660;2023-01-28T16:56:42;4.00;99.30
4910;DHT22;2470;49.868;8.660;2023-01-28T16:59:09;4.00;99.20
4910;DHT22;2470;49.868;8.660;2023-01-28T17:01:35;4.10;99.20
4910;DHT22;2470;49.868;8.660;2023-01-28T17:04:00;4.10;99.20
4910;DHT22;2470;49.868;8.660;2023-01-28T17:06:28;4.10;99.20
4910;DHT22;2470;49.868;8.660;2023-01-28T17:08:53;4.00;99.20
4910;DHT22;2470;49.868;8.660;2023-01-28T17:11:19;4.10;99.30
4910;DHT22;2470;49.868;8.660;2023-01-28T17:13:44;4.10;99.10
4910;DHT22;2470;49.868;8.660;2023-01-28T17:16:10;4.10;98.80
4910;DHT22;2470;49.868;8.660;2023-01-28T17:18:35;4.00;98.90
4910;DHT22;2470;49.868;8.660;2023-01-28T17:21:02;4.00;98.90
4910;DHT22;2470;49.868;8.660;2023-01-28T17:23:28;4.00;99.00
4910;DHT22;2470;49.868;8.660;2023-01-28T17:25:54;4.00;99.10
4910;DHT22;2470;49.868;8.660;2023-01-28T17:28:19;4.00;99.20
4910;DHT22;2470;49.868;8.660;2023-01-28T17:30:45;4.00;99.10
4910;DHT22;2470;49.868;8.660;2023-01-28T17:33:10;4.00;99.20
4910;DHT22;2470;49.868;8.660;2023-01-28T17:35:36;4.00;99.30
4910;DHT22;2470;49.868;8.660;2023-01-28T17:38:02;3.90;99.30
4910;DHT22;2470;49.868;8.660;2023-01-28T17:40:28;3.90;99.20
4910;DHT22;2470;49.868;8.660;2023-01-28T17:42:54;3.90;99.10
4910;DHT22;2470;49.868;8.660;2023-01-28T17:45:20;3.90;99.10
4910;DHT22;2470;49.868;8.660;2023-01-28T17:47:46;3.90;99.10
4910;DHT22;2470;49.868;8.660;2023-01-28T17:50:11;3.90;99.10
4910;DHT22;2470;49.868;8.660;2023-01-28T17:52:37;4.00;99.30
4910;DHT22;2470;49.868;8.660;2023-01-28T17:55:03;4.00;99.20
4910;DHT22;2470;49.868;8.660;2023-01-28T17:57:29;4.00;99.30
4910;DHT22;2470;49.868;8.660;2023-01-28T17:59:54;3.90;99.60
4910;DHT22;2470;49.868;8.660;2023-01-28T18:02:20;3.90;99.40
4910;DHT22;2470;49.868;8.660;2023-01-28T18:04:45;3.90;99.20
4910;DHT22;2470;49.868;8.660;2023-01-28T18:07:11;3.80;99.10
4910;DHT22;2470;49.868;8.660;2023-01-28T18:09:42;3.80;99.20
4910;DHT22;2470;49.868;8.660;2023-01-28T18:12:11;3.80;99.30
4910;DHT22;2470;49.868;8.660;2023-01-28T18:14:37;3.90;99.50
4910;DHT22;2470;49.868;8.660;2023-01-28T18:17:04;3.90;99.50
4910;DHT22;2470;49.868;8.660;2023-01-28T18:19:30;3.90;99.50
4910;DHT22;2470;49.868;8.660;2023-01-28T18:21:56;3.90;99.40
4910;DHT22;2470;49.868;8.660;2023-01-28T18:24:23;3.80;99.10
4910;DHT22;2470;49.868;8.660;2023-01-28T18:26:50;3.80;99.00
4910;DHT22;2470;49.868;8.660;2023-01-28T18:29:16;3.80;98.90
4910;DHT22;2470;49.868;8.660;2023-01-28T18:31:47;3.80;98.80